sensor_id;sensor_type;location;lat;lon;timestamp;pressure;altitude;pressure_sealevel;temperature;humidity
41044;BME280;51680;49.806;18.774;2023-08-06T00:00:07;96161.91;;;22.19;92.40
41044;BME280;51680;49.806;18.774;2023-08-06T00:03:11;96140.44;;;22.20;92.32
41044;BME280;51680;49.806;18.774;2023-08-06T00:06:12;96121.19;;;22.18;92.19
41044;BME280;51680;49.806;18.774;2023-08-06T00:09:14;96103.81;;;22.16;91.98
41044;BME280;51680;49.806;18.774;2023-08-06T00:12:16;96094.63;;;22.12;92.07
41044;BME280;51680;49.806;18.774;2023-08-06T00:15:18;96103.59;;;22.11;92.37
41044;BME280;51680;49.806;18.774;2023-08-06T00:18:21;96084.97;;;22.11;92.32
41044;BME280;51680;49.806;18.774;2023-08-06T00:21:23;96079.88;;;22.09;92.15
41044;BME280;51680;49.806;18.774;2023-08-06T00:24:24;96080.69;;;22.10;92.11
41044;BME280;51680;49.806;18.774;2023-08-06T00:27:26;96076.41;;;22.09;92.60
41044;BME280;51680;49.806;18.774;2023-08-06T00:30:28;96068.63;;;22.07;92.48
41044;BME280;51680;49.806;18.774;2023-08-06T00:33:31;96062.50;;;22.07;93.02
41044;BME280;51680;49.806;18.774;2023-08-06T00:36:32;96070.69;;;22.05;92.65
41044;BME280;51680;49.806;18.774;2023-08-06T00:39:35;96066.78;;;22.08;92.48
41044;BME280;51680;49.806;18.774;2023-08-06T00:42:36;96062.91;;;22.10;92.83
41044;BME280;51680;49.806;18.774;2023-08-06T00:45:38;96060.06;;;22.12;92.63
41044;BME280;51680;49.806;18.774;2023-08-06T00:48:41;96045.31;;;22.16;92.48
41044;BME280;51680;49.806;18.774;2023-08-06T00:51:44;96047.97;;;22.16;92.69
41044;BME280;51680;49.806;18.774;2023-08-06T00:54:46;96036.94;;;22.19;92.52
41044;BME280;51680;49.806;18.774;2023-08-06T00:57:48;96021.81;;;22.19;92.22
41044;BME280;51680;49.806;18.774;2023-08-06T01:00:51;96008.31;;;22.21;92.17
41044;BME280;51680;49.806;18.774;2023-08-06T01:03:54;95998.50;;;22.21;92.38
41044;BME280;51680;49.806;18.774;2023-08-06T01:07:06;95992.34;;;22.21;92.10
41044;BME280;51680;49.806;18.774;2023-08-06T01:10:22;95962.50;;;22.19;91.22
41044;BME280;51680;49.806;18.774;2023-08-06T01:13:37;95958.59;;;22.08;91.79
41044;BME280;51680;49.806;18.774;2023-08-06T01:16:43;95943.28;;;21.97;92.27
41044;BME280;51680;49.806;18.774;2023-08-06T01:19:46;95935.72;;;21.88;92.07
41044;BME280;51680;49.806;18.774;2023-08-06T01:22:49;95936.91;;;21.72;92.38
41044;BME280;51680;49.806;18.774;2023-08-06T01:25:56;95931.34;;;21.67;92.20
41044;BME280;51680;49.806;18.774;2023-08-06T01:29:06;95924.19;;;21.61;92.23
41044;BME280;51680;49.806;18.774;2023-08-06T01:32:11;95931.50;;;21.53;92.41
41044;BME280;51680;49.806;18.774;2023-08-06T01:35:15;95906.38;;;21.49;92.28
41044;BME280;51680;49.806;18.774;2023-08-06T01:38:18;95899.44;;;21.48;92.11
41044;BME280;51680;49.806;18.774;2023-08-06T01:41:20;95901.28;;;21.47;91.92
41044;BME280;51680;49.806;18.774;2023-08-06T01:44:22;95930.06;;;21.44;92.21
41044;BME280;51680;49.806;18.774;2023-08-06T01:47:24;95904.69;;;21.35;92.03
41044;BME280;51680;49.806;18.774;2023-08-06T01:50:26;95904.69;;;21.35;92.13
41044;BME280;51680;49.806;18.774;2023-08-06T01:53:29;95912.22;;;21.25;92.48
41044;BME280;51680;49.806;18.774;2023-08-06T01:56:32;95923.06;;;21.23;92.42
41044;BME280;51680;49.806;18.774;2023-08-06T01:59:33;95930.38;;;21.15;92.70
41044;BME280;51680;49.806;18.774;2023-08-06T02:02:35;95916.13;;;21.16;92.74
41044;BME280;51680;49.806;18.774;2023-08-06T02:05:37;95889.56;;;21.16;92.65
41044;BME280;51680;49.806;18.774;2023-08-06T02:08:42;95898.53;;;21.21;92.36
41044;BME280;51680;49.806;18.774;2023-08-06T02:11:44;95907.53;;;21.20;92.52
41044;BME280;51680;49.806;18.774;2023-08-06T02:14:46;95901.63;;;21.18;92.45
41044;BME280;51680;49.806;18.774;2023-08-06T02:17:48;95905.06;;;21.19;92.32
41044;BME280;51680;49.806;18.774;2023-08-06T02:20:55;95918.06;;;21.01;92.93
41044;BME280;51680;49.806;18.774;2023-08-06T02:23:59;95913.69;;;20.87;93.63
41044;BME280;51680;49.806;18.774;2023-08-06T02:27:01;95900.00;;;20.83;93.93
41044;BME280;51680;49.806;18.774;2023-08-06T02:30:04;95895.13;;;20.80;93.99
41044;BME280;51680;49.806;18.774;2023-08-06T02:33:06;95896.31;;;20.78;94.08
41044;BME280;51680;49.806;18.774;2023-08-06T02:36:08;95893.25;;;20.81;94.18
41044;BME280;51680;49.806;18.774;2023-08-06T02:39:11;95890.63;;;20.87;93.91
41044;BME280;51680;49.806;18.774;2023-08-06T02:42:13;95878.84;;;20.90;93.68
41044;BME280;51680;49.806;18.774;2023-08-06T02:45:14;95881.66;;;20.88;93.74
41044;BME280;51680;49.806;18.774;2023-08-06T02:48:16;95874.09;;;20.85;93.73
41044;BME280;51680;49.806;18.774;2023-08-06T02:51:18;95869.00;;;20.84;93.82
41044;BME280;51680;49.806;18.774;2023-08-06T02:54:22;95867.59;;;20.88;93.59
41044;BME280;51680;49.806;18.774;2023-08-06T02:57:24;95877.97;;;20.89;93.50
41044;BME280;51680;49.806;18.774;2023-08-06T03:00:27;95875.09;;;20.78;93.85
41044;BME280;51680;49.806;18.774;2023-08-06T03:03:29;95875.69;;;20.73;93.96
41044;BME280;51680;49.806;18.774;2023-08-06T03:06:33;95874.00;;;20.66;94.35
41044;BME280;51680;49.806;18.774;2023-08-06T03:09:38;95876.66;;;20.66;94.30
41044;BME280;51680;49.806;18.774;2023-08-06T03:12:40;95872.59;;;20.70;94.13
41044;BME280;51680;49.806;18.774;2023-08-06T03:15:42;95875.47;;;20.75;94.02
41044;BME280;51680;49.806;18.774;2023-08-06T03:18:46;95879.91;;;20.61;94.89
41044;BME280;51680;49.806;18.774;2023-08-06T03:21:48;95879.09;;;20.61;94.29
41044;BME280;51680;49.806;18.774;2023-08-06T03:24:52;95881.75;;;20.61;94.09
41044;BME280;51680;49.806;18.774;2023-08-06T03:27:56;95877.47;;;20.60;94.32
41044;BME280;51680;49.806;18.774;2023-08-06T03:30:59;95870.53;;;20.59;94.44
41044;BME280;51680;49.806;18.774;2023-08-06T03:34:04;95869.88;;;20.57;94.66
41044;BME280;51680;49.806;18.774;2023-08-06T03:37:07;95862.34;;;20.54;94.70
41044;BME280;51680;49.806;18.774;2023-08-06T03:40:11;95871.50;;;20.58;94.49
41044;BME280;51680;49.806;18.774;2023-08-06T03:43:13;95865.00;;;20.54;94.53
41044;BME280;51680;49.806;18.774;2023-08-06T03:46:15;95859.25;;;20.50;94.73
41044;BME280;51680;49.806;18.774;2023-08-06T03:49:18;95851.09;;;20.52;94.52
41044;BME280;51680;49.806;18.774;2023-08-06T03:52:20;95829.50;;;20.55;94.50
41044;BME280;51680;49.806;18.774;2023-08-06T03:55:24;95826.06;;;20.61;93.66
41044;BME280;51680;49.806;18.774;2023-08-06T03:58:26;95822.78;;;20.65;93.41
41044;BME280;51680;49.806;18.774;2023-08-06T04:01:28;95824.03;;;20.69;93.51
41044;BME280;51680;49.806;18.774;2023-08-06T04:04:30;95820.38;;;20.70;93.34
41044;BME280;51680;49.806;18.774;2023-08-06T04:07:32;95819.97;;;20.73;93.04
41044;BME280;51680;49.806;18.774;2023-08-06T04:10:35;95819.41;;;20.78;92.84
41044;BME280;51680;49.806;18.774;2023-08-06T04:13:37;95814.69;;;20.80;92.67
41044;BME280;51680;49.806;18.774;2023-08-06T04:16:38;95814.31;;;20.83;92.70
41044;BME280;51680;49.806;18.774;2023-08-06T04:19:40;95806.34;;;20.83;92.32
41044;BME280;51680;49.806;18.774;2023-08-06T04:22:42;95808.38;;;20.81;92.32
41044;BME280;51680;49.806;18.774;2023-08-06T04:25:45;95810.00;;;20.82;91.89
41044;BME280;51680;49.806;18.774;2023-08-06T04:28:48;95804.09;;;20.80;91.70
41044;BME280;51680;49.806;18.774;2023-08-06T04:31:50;95807.75;;;20.79;91.19
41044;BME280;51680;49.806;18.774;2023-08-06T04:34:52;95801.03;;;20.76;91.06
41044;BME280;51680;49.806;18.774;2023-08-06T04:37:54;95804.88;;;20.74;90.81
41044;BME280;51680;49.806;18.774;2023-08-06T04:40:57;95791.41;;;20.69;90.98
41044;BME280;51680;49.806;18.774;2023-08-06T04:43:59;95787.72;;;20.63;90.74
41044;BME280;51680;49.806;18.774;2023-08-06T04:47:01;95791.97;;;20.58;90.84
41044;BME280;51680;49.806;18.774;2023-08-06T04:50:04;95796.84;;;20.54;90.58
41044;BME280;51680;49.806;18.774;2023-08-06T04:53:06;95805.59;;;20.48;90.58
41044;BME280;51680;49.806;18.774;2023-08-06T04:56:09;95796.22;;;20.46;90.40
41044;BME280;51680;49.806;18.774;2023-08-06T04:59:10;95794.34;;;20.40;90.67
41044;BME280;51680;49.806;18.774;2023-08-06T05:02:12;95789.25;;;20.38;90.50
41044;BME280;51680;49.806;18.774;2023-08-06T05:05:14;95793.53;;;20.39;90.52
41044;BME280;51680;49.806;18.774;2023-08-06T05:08:16;95795.16;;;20.40;90.76
41044;BME280;51680;49.806;18.774;2023-08-06T05:11:19;95791.06;;;20.38;90.54
41044;BME280;51680;49.806;18.774;2023-08-06T05:14:21;95794.53;;;20.38;90.45
41044;BME280;51680;49.806;18.774;2023-08-06T05:17:22;95781.47;;;20.37;90.54
41044;BME280;51680;49.806;18.774;2023-08-06T05:20:24;95786.78;;;20.37;90.29
41044;BME280;51680;49.806;18.774;2023-08-06T05:23:26;95785.97;;;20.36;90.38
41044;BME280;51680;49.806;18.774;2023-08-06T05:26:29;95780.66;;;20.36;90.31
41044;BME280;51680;49.806;18.774;2023-08-06T05:29:31;95784.75;;;20.32;90.27
41044;BME280;51680;49.806;18.774;2023-08-06T05:32:32;95790.84;;;20.33;90.28
41044;BME280;51680;49.806;18.774;2023-08-06T05:35:34;95778.41;;;20.33;90.03
41044;BME280;51680;49.806;18.774;2023-08-06T05:38:36;95786.56;;;20.32;90.05
41044;BME280;51680;49.806;18.774;2023-08-06T05:41:39;95783.91;;;20.32;89.82
41044;BME280;51680;49.806;18.774;2023-08-06T05:44:41;95779.00;;;20.29;89.80
41044;BME280;51680;49.806;18.774;2023-08-06T05:47:42;95784.72;;;20.26;90.13
41044;BME280;51680;49.806;18.774;2023-08-06T05:50:44;95777.13;;;20.23;89.90
41044;BME280;51680;49.806;18.774;2023-08-06T05:53:46;95765.09;;;20.20;89.67
41044;BME280;51680;49.806;18.774;2023-08-06T05:56:51;95760.59;;;20.14;89.55
41044;BME280;51680;49.806;18.774;2023-08-06T05:59:52;95762.56;;;20.06;89.46
41044;BME280;51680;49.806;18.774;2023-08-06T06:02:54;95766.59;;;20.02;89.09
41044;BME280;51680;49.806;18.774;2023-08-06T06:05:56;95766.75;;;19.94;89.01
41044;BME280;51680;49.806;18.774;2023-08-06T06:08:58;95751.66;;;19.88;89.29
41044;BME280;51680;49.806;18.774;2023-08-06T06:12:01;95742.25;;;19.85;89.29
41044;BME280;51680;49.806;18.774;2023-08-06T06:15:03;95746.53;;;19.86;89.32
41044;BME280;51680;49.806;18.774;2023-08-06T06:18:05;95729.81;;;19.86;89.27
41044;BME280;51680;49.806;18.774;2023-08-06T06:21:06;95744.47;;;19.82;89.48
41044;BME280;51680;49.806;18.774;2023-08-06T06:24:08;95738.19;;;19.83;89.43
41044;BME280;51680;49.806;18.774;2023-08-06T06:27:11;95734.31;;;19.85;89.18
41044;BME280;51680;49.806;18.774;2023-08-06T06:30:13;95731.84;;;19.84;89.28
41044;BME280;51680;49.806;18.774;2023-08-06T06:33:15;95737.13;;;19.77;89.29
41044;BME280;51680;49.806;18.774;2023-08-06T06:36:16;95733.03;;;19.75;89.41
41044;BME280;51680;49.806;18.774;2023-08-06T06:39:18;95744.00;;;19.72;89.32
41044;BME280;51680;49.806;18.774;2023-08-06T06:42:21;95738.69;;;19.72;89.33
41044;BME280;51680;49.806;18.774;2023-08-06T06:45:25;95750.94;;;19.73;89.23
41044;BME280;51680;49.806;18.774;2023-08-06T06:48:28;95738.69;;;19.72;89.18
41044;BME280;51680;49.806;18.774;2023-08-06T06:51:31;95737.06;;;19.71;89.14
41044;BME280;51680;49.806;18.774;2023-08-06T06:54:33;95733.03;;;19.75;88.68
41044;BME280;51680;49.806;18.774;2023-08-06T06:57:36;95739.34;;;19.74;88.51
41044;BME280;51680;49.806;18.774;2023-08-06T07:00:38;95750.94;;;19.73;88.54
41044;BME280;51680;49.806;18.774;2023-08-06T07:03:40;95754.75;;;19.64;88.90
41044;BME280;51680;49.806;18.774;2023-08-06T07:06:42;95756.53;;;19.57;88.99
41044;BME280;51680;49.806;18.774;2023-08-06T07:09:44;95763.44;;;19.58;89.23
41044;BME280;51680;49.806;18.774;2023-08-06T07:12:47;95763.44;;;19.58;88.96
41044;BME280;51680;49.806;18.774;2023-08-06T07:15:49;95759.41;;;19.62;89.08
41044;BME280;51680;49.806;18.774;2023-08-06T07:18:51;95754.75;;;19.64;88.64
41044;BME280;51680;49.806;18.774;2023-08-06T07:21:53;95754.13;;;19.62;88.49
41044;BME280;51680;49.806;18.774;2023-08-06T07:24:56;95758.59;;;19.61;88.35
41044;BME280;51680;49.806;18.774;2023-08-06T07:27:59;95750.47;;;19.63;88.34
41044;BME280;51680;49.806;18.774;2023-08-06T07:31:02;95752.09;;;19.64;88.01
41044;BME280;51680;49.806;18.774;2023-08-06T07:34:04;95749.28;;;19.65;88.03
41044;BME280;51680;49.806;18.774;2023-08-06T07:37:06;95735.00;;;19.66;87.72
41044;BME280;51680;49.806;18.774;2023-08-06T07:40:09;95737.25;;;19.69;87.65
41044;BME280;51680;49.806;18.774;2023-08-06T07:43:12;95732.59;;;19.71;87.56
41044;BME280;51680;49.806;18.774;2023-08-06T07:46:14;95740.75;;;19.70;87.89
41044;BME280;51680;49.806;18.774;2023-08-06T07:49:15;95757.00;;;19.67;87.91
41044;BME280;51680;49.806;18.774;2023-08-06T07:52:17;95752.09;;;19.64;88.00
41044;BME280;51680;49.806;18.774;2023-08-06T07:55:19;95756.56;;;19.63;88.03
41044;BME280;51680;49.806;18.774;2023-08-06T07:58:23;95759.41;;;19.62;87.95
41044;BME280;51680;49.806;18.774;2023-08-06T08:01:25;95759.13;;;19.50;88.01
41044;BME280;51680;49.806;18.774;2023-08-06T08:04:27;95747.50;;;19.45;87.97
41044;BME280;51680;49.806;18.774;2023-08-06T08:07:29;95742.81;;;19.47;88.05
41044;BME280;51680;49.806;18.774;2023-08-06T08:10:31;95739.59;;;19.51;87.93
41044;BME280;51680;49.806;18.774;2023-08-06T08:13:34;95746.34;;;19.54;87.84
41044;BME280;51680;49.806;18.774;2023-08-06T08:16:36;95735.75;;;19.54;88.02
41044;BME280;51680;49.806;18.774;2023-08-06T08:19:39;95730.00;;;19.50;88.10
41044;BME280;51680;49.806;18.774;2023-08-06T08:22:41;95729.81;;;19.52;88.31
41044;BME280;51680;49.806;18.774;2023-08-06T08:25:43;95733.72;;;19.56;88.01
41044;BME280;51680;49.806;18.774;2023-08-06T08:28:46;95736.75;;;19.53;87.98
41044;BME280;51680;49.806;18.774;2023-08-06T08:31:48;95726.78;;;19.55;87.84
41044;BME280;51680;49.806;18.774;2023-08-06T08:34:50;95739.00;;;19.56;87.79
41044;BME280;51680;49.806;18.774;2023-08-06T08:37:52;95732.09;;;19.55;87.59
41044;BME280;51680;49.806;18.774;2023-08-06T08:40:54;95730.47;;;19.54;87.63
41044;BME280;51680;49.806;18.774;2023-08-06T08:43:58;95740.59;;;19.50;88.14
41044;BME280;51680;49.806;18.774;2023-08-06T08:47:00;95737.75;;;19.52;88.12
41044;BME280;51680;49.806;18.774;2023-08-06T08:50:05;95746.34;;;19.54;87.67
41044;BME280;51680;49.806;18.774;2023-08-06T08:53:08;95749.78;;;19.54;87.35
41044;BME280;51680;49.806;18.774;2023-08-06T08:56:13;95743.94;;;19.59;87.45
41044;BME280;51680;49.806;18.774;2023-08-06T08:59:16;95747.44;;;19.66;87.48
41044;BME280;51680;49.806;18.774;2023-08-06T09:02:21;95752.47;;;19.61;87.64
41044;BME280;51680;49.806;18.774;2023-08-06T09:05:23;95747.19;;;19.61;87.42
41044;BME280;51680;49.806;18.774;2023-08-06T09:08:32;95740.31;;;19.66;86.84
41044;BME280;51680;49.806;18.774;2023-08-06T09:11:39;95737.84;;;19.65;86.86
41044;BME280;51680;49.806;18.774;2023-08-06T09:14:43;95745.19;;;19.63;86.98
41044;BME280;51680;49.806;18.774;2023-08-06T09:17:44;95744.53;;;19.61;86.95
41044;BME280;51680;49.806;18.774;2023-08-06T09:20:48;95742.28;;;19.58;86.61
41044;BME280;51680;49.806;18.774;2023-08-06T09:23:50;95750.13;;;19.45;86.44
41044;BME280;51680;49.806;18.774;2023-08-06T09:26:52;95743.00;;;19.45;86.94
41044;BME280;51680;49.806;18.774;2023-08-06T09:29:56;95742.63;;;19.48;86.82
41044;BME280;51680;49.806;18.774;2023-08-06T09:32:57;95736.25;;;19.43;86.71
41044;BME280;51680;49.806;18.774;2023-08-06T09:36:07;95745.41;;;19.40;87.11
41044;BME280;51680;49.806;18.774;2023-08-06T09:39:13;95758.03;;;19.38;87.27
41044;BME280;51680;49.806;18.774;2023-08-06T09:42:15;95765.66;;;19.27;87.56
41044;BME280;51680;49.806;18.774;2023-08-06T09:45:18;95778.13;;;19.12;87.84
41044;BME280;51680;49.806;18.774;2023-08-06T09:48:24;95773.59;;;19.06;88.06
41044;BME280;51680;49.806;18.774;2023-08-06T09:51:26;95772.69;;;18.99;88.56
41044;BME280;51680;49.806;18.774;2023-08-06T09:54:28;95762.78;;;19.07;88.47
41044;BME280;51680;49.806;18.774;2023-08-06T09:57:31;95774.09;;;19.16;88.23
41044;BME280;51680;49.806;18.774;2023-08-06T10:00:34;95771.97;;;19.26;88.07
41044;BME280;51680;49.806;18.774;2023-08-06T10:03:36;95773.22;;;19.30;87.71
41044;BME280;51680;49.806;18.774;2023-08-06T10:06:38;95779.19;;;19.38;87.65
41044;BME280;51680;49.806;18.774;2023-08-06T10:09:40;95784.50;;;19.38;87.23
41044;BME280;51680;49.806;18.774;2023-08-06T10:12:44;95781.00;;;19.38;87.13
41044;BME280;51680;49.806;18.774;2023-08-06T10:15:50;95781.59;;;19.33;86.84
41044;BME280;51680;49.806;18.774;2023-08-06T10:18:53;95782.81;;;19.31;86.88
41044;BME280;51680;49.806;18.774;2023-08-06T10:22:14;95787.25;;;19.30;86.81
41044;BME280;51680;49.806;18.774;2023-08-06T10:25:17;95798.44;;;19.26;87.41
41044;BME280;51680;49.806;18.774;2023-08-06T10:28:19;95800.31;;;19.32;87.28
41044;BME280;51680;49.806;18.774;2023-08-06T10:31:54;95791.41;;;19.39;86.49
41044;BME280;51680;49.806;18.774;2023-08-06T10:34:57;95797.72;;;19.38;86.95
41044;BME280;51680;49.806;18.774;2023-08-06T10:38:02;95804.66;;;19.39;87.10
41044;BME280;51680;49.806;18.774;2023-08-06T10:41:05;95792.25;;;19.40;86.88
41044;BME280;51680;49.806;18.774;2023-08-06T10:44:07;95787.00;;;19.46;86.71
41044;BME280;51680;49.806;18.774;2023-08-06T10:47:28;95786.03;;;19.54;86.49
41044;BME280;51680;49.806;18.774;2023-08-06T10:50:30;95786.22;;;19.52;86.63
41044;BME280;51680;49.806;18.774;2023-08-06T10:53:32;95789.06;;;19.51;86.62
41044;BME280;51680;49.806;18.774;2023-08-06T10:56:40;95782.63;;;19.60;86.56
41044;BME280;51680;49.806;18.774;2023-08-06T10:59:42;95800.38;;;19.66;86.25
41044;BME280;51680;49.806;18.774;2023-08-06T11:02:47;95804.09;;;19.71;85.90
41044;BME280;51680;49.806;18.774;2023-08-06T11:05:49;95799.81;;;19.70;86.26
41044;BME280;51680;49.806;18.774;2023-08-06T11:08:53;95810.84;;;19.74;86.37
41044;BME280;51680;49.806;18.774;2023-08-06T11:11:55;95811.22;;;19.71;86.16
41044;BME280;51680;49.806;18.774;2023-08-06T11:14:56;95810.84;;;19.74;85.85
41044;BME280;51680;49.806;18.774;2023-08-06T11:17:59;95822.81;;;19.70;85.55
41044;BME280;51680;49.806;18.774;2023-08-06T11:21:03;95828.31;;;19.68;85.91
41044;BME280;51680;49.806;18.774;2023-08-06T11:24:05;95829.69;;;19.64;86.04
41044;BME280;51680;49.806;18.774;2023-08-06T11:27:11;95841.50;;;19.62;85.80
41044;BME280;51680;49.806;18.774;2023-08-06T11:30:14;95850.44;;;19.61;85.94
41044;BME280;51680;49.806;18.774;2023-08-06T11:33:21;95861.16;;;19.53;86.24
41044;BME280;51680;49.806;18.774;2023-08-06T11:36:30;95868.09;;;19.33;86.84
41044;BME280;51680;49.806;18.774;2023-08-06T11:39:32;95872.59;;;19.18;87.24
41044;BME280;51680;49.806;18.774;2023-08-06T11:42:35;95877.72;;;19.19;87.39
41044;BME280;51680;49.806;18.774;2023-08-06T11:45:37;95878.00;;;19.10;87.60
41044;BME280;51680;49.806;18.774;2023-08-06T11:48:52;95872.69;;;19.10;88.01
41044;BME280;51680;49.806;18.774;2023-08-06T11:51:53;95877.81;;;19.11;88.03
41044;BME280;51680;49.806;18.774;2023-08-06T11:55:03;95899.81;;;19.12;87.91
41044;BME280;51680;49.806;18.774;2023-08-06T11:58:07;95899.28;;;19.02;88.33
41044;BME280;51680;49.806;18.774;2023-08-06T12:01:08;95895.63;;;19.03;88.29
41044;BME280;51680;49.806;18.774;2023-08-06T12:04:12;95904.19;;;19.05;88.28
41044;BME280;51680;49.806;18.774;2023-08-06T12:07:15;95899.72;;;19.05;88.31
41044;BME280;51680;49.806;18.774;2023-08-06T12:10:18;95906.84;;;19.05;88.17
41044;BME280;51680;49.806;18.774;2023-08-06T12:13:21;95900.31;;;19.01;88.58
41044;BME280;51680;49.806;18.774;2023-08-06T12:16:22;95889.06;;;18.99;88.82
41044;BME280;51680;49.806;18.774;2023-08-06T12:19:26;95888.97;;;19.07;88.55
41044;BME280;51680;49.806;18.774;2023-08-06T12:22:27;95883.53;;;19.15;88.61
41044;BME280;51680;49.806;18.774;2023-08-06T12:25:32;95877.63;;;19.27;88.30
41044;BME280;51680;49.806;18.774;2023-08-06T12:28:33;95871.66;;;19.40;87.76
41044;BME280;51680;49.806;18.774;2023-08-06T12:31:35;95864.69;;;19.60;87.35
41044;BME280;51680;49.806;18.774;2023-08-06T12:34:39;95871.88;;;19.66;87.03
41044;BME280;51680;49.806;18.774;2023-08-06T12:37:41;95864.94;;;19.65;86.95
41044;BME280;51680;49.806;18.774;2023-08-06T12:40:44;95860.72;;;19.70;86.82
41044;BME280;51680;49.806;18.774;2023-08-06T12:43:46;95869.41;;;19.64;86.91
41044;BME280;51680;49.806;18.774;2023-08-06T12:46:48;95876.38;;;19.65;86.70
41044;BME280;51680;49.806;18.774;2023-08-06T12:49:51;95872.75;;;19.73;86.40
41044;BME280;51680;49.806;18.774;2023-08-06T12:52:52;95882.19;;;19.82;86.18
41044;BME280;51680;49.806;18.774;2023-08-06T12:55:54;95885.97;;;19.94;85.90
41044;BME280;51680;49.806;18.774;2023-08-06T12:58:58;95888.38;;;19.89;86.17
41044;BME280;51680;49.806;18.774;2023-08-06T13:02:00;95890.66;;;19.98;86.11
41044;BME280;51680;49.806;18.774;2023-08-06T13:05:04;95903.97;;;20.05;85.96
41044;BME280;51680;49.806;18.774;2023-08-06T13:08:06;95900.34;;;20.06;86.26
41044;BME280;51680;49.806;18.774;2023-08-06T13:11:08;95902.88;;;19.93;86.43
41044;BME280;51680;49.806;18.774;2023-08-06T13:14:11;95903.91;;;19.98;86.05
41044;BME280;51680;49.806;18.774;2023-08-06T13:17:13;95916.97;;;20.00;86.12
41044;BME280;51680;49.806;18.774;2023-08-06T13:20:16;95912.81;;;19.91;86.26
41044;BME280;51680;49.806;18.774;2023-08-06T13:23:19;95903.13;;;19.98;86.21
41044;BME280;51680;49.806;18.774;2023-08-06T13:26:21;95909.34;;;20.11;86.24
41044;BME280;51680;49.806;18.774;2023-08-06T13:29:24;95916.56;;;20.24;86.08
41044;BME280;51680;49.806;18.774;2023-08-06T13:32:26;95918.50;;;20.36;85.87
41044;BME280;51680;49.806;18.774;2023-08-06T13:35:29;95901.00;;;20.42;85.07
41044;BME280;51680;49.806;18.774;2023-08-06T13:38:30;95901.47;;;20.52;85.23
41044;BME280;51680;49.806;18.774;2023-08-06T13:41:32;95912.97;;;20.65;84.15
41044;BME280;51680;49.806;18.774;2023-08-06T13:44:34;95912.94;;;20.59;84.13
41044;BME280;51680;49.806;18.774;2023-08-06T13:47:36;95909.88;;;20.62;83.95
41044;BME280;51680;49.806;18.774;2023-08-06T13:50:39;95902.59;;;20.70;83.95
41044;BME280;51680;49.806;18.774;2023-08-06T13:53:41;95889.81;;;20.80;83.77
41044;BME280;51680;49.806;18.774;2023-08-06T13:56:43;95901.31;;;20.94;83.36
41044;BME280;51680;49.806;18.774;2023-08-06T13:59:45;95898.28;;;21.03;82.88
41044;BME280;51680;49.806;18.774;2023-08-06T14:02:47;95906.69;;;21.07;81.95
41044;BME280;51680;49.806;18.774;2023-08-06T14:05:50;95908.31;;;21.08;82.00
41044;BME280;51680;49.806;18.774;2023-08-06T14:08:52;95926.63;;;20.96;82.23
41044;BME280;51680;49.806;18.774;2023-08-06T14:11:53;95940.00;;;20.82;83.17
41044;BME280;51680;49.806;18.774;2023-08-06T14:14:55;95939.91;;;20.62;83.54
41044;BME280;51680;49.806;18.774;2023-08-06T14:17:57;95948.00;;;20.54;83.87
41044;BME280;51680;49.806;18.774;2023-08-06T14:21:00;95941.16;;;20.39;84.62
41044;BME280;51680;49.806;18.774;2023-08-06T14:24:02;95945.59;;;20.32;84.71
41044;BME280;51680;49.806;18.774;2023-08-06T14:27:04;95953.63;;;20.17;84.96
41044;BME280;51680;49.806;18.774;2023-08-06T14:30:07;95959.69;;;20.11;85.04
41044;BME280;51680;49.806;18.774;2023-08-06T14:33:09;95975.44;;;19.98;85.21
41044;BME280;51680;49.806;18.774;2023-08-06T14:36:12;95974.41;;;19.93;85.17
41044;BME280;51680;49.806;18.774;2023-08-06T14:39:14;95970.41;;;19.82;85.56
41044;BME280;51680;49.806;18.774;2023-08-06T14:42:15;95975.91;;;19.81;85.62
41044;BME280;51680;49.806;18.774;2023-08-06T14:45:17;95986.31;;;19.82;85.44
41044;BME280;51680;49.806;18.774;2023-08-06T14:48:19;95993.41;;;19.82;85.31
41044;BME280;51680;49.806;18.774;2023-08-06T14:51:22;95995.09;;;19.83;85.52
41044;BME280;51680;49.806;18.774;2023-08-06T14:54:24;95996.06;;;19.82;85.65
41044;BME280;51680;49.806;18.774;2023-08-06T14:57:26;95997.56;;;19.84;85.65
41044;BME280;51680;49.806;18.774;2023-08-06T15:00:28;95991.78;;;19.81;85.50
41044;BME280;51680;49.806;18.774;2023-08-06T15:03:30;96014.34;;;19.77;85.45
41044;BME280;51680;49.806;18.774;2023-08-06T15:06:33;96004.00;;;19.82;85.73
41044;BME280;51680;49.806;18.774;2023-08-06T15:09:35;96010.31;;;19.81;85.78
41044;BME280;51680;49.806;18.774;2023-08-06T15:12:37;96010.97;;;19.83;85.46
41044;BME280;51680;49.806;18.774;2023-08-06T15:15:39;95999.19;;;19.85;85.41
41044;BME280;51680;49.806;18.774;2023-08-06T15:18:42;96011.41;;;19.86;85.24
41044;BME280;51680;49.806;18.774;2023-08-06T15:21:46;96024.66;;;19.86;85.29
41044;BME280;51680;49.806;18.774;2023-08-06T15:24:48;96026.03;;;19.82;85.64
41044;BME280;51680;49.806;18.774;2023-08-06T15:27:49;96029.63;;;19.75;85.82
41044;BME280;51680;49.806;18.774;2023-08-06T15:30:52;96036.94;;;19.73;85.82
41044;BME280;51680;49.806;18.774;2023-08-06T15:33:53;96038.50;;;19.67;85.78
41044;BME280;51680;49.806;18.774;2023-08-06T15:36:57;96033.38;;;19.66;86.08
41044;BME280;51680;49.806;18.774;2023-08-06T15:39:58;96032.78;;;19.64;86.33
41044;BME280;51680;49.806;18.774;2023-08-06T15:43:00;96024.66;;;19.51;86.44
41044;BME280;51680;49.806;18.774;2023-08-06T15:46:02;96026.03;;;19.47;86.37
41044;BME280;51680;49.806;18.774;2023-08-06T15:49:04;96041.84;;;19.40;86.64
41044;BME280;51680;49.806;18.774;2023-08-06T15:52:07;96043.78;;;19.32;86.62
41044;BME280;51680;49.806;18.774;2023-08-06T15:55:09;96041.22;;;19.24;86.51